sensor_id;sensor_type;location;lat;lon;timestamp;P1;durP1;ratioP1;P2;durP2;ratioP2
15816;SDS011;8009;50.070;8.232;2022-12-01T00:04:04;13.80;;;13.30;;
15816;SDS011;8009;50.070;8.232;2022-12-01T00:12:51;14.53;;;14.03;;
15816;SDS011;8009;50.070;8.232;2022-12-01T00:18:36;17.63;;;16.93;;
15816;SDS011;8009;50.070;8.232;2022-12-01T00:21:15;14.57;;;14.07;;
15816;SDS011;8009;50.070;8.232;2022-12-01T00:23:47;13.40;;;12.90;;
15816;SDS011;8009;50.070;8.232;2022-12-01T00:26:27;14.23;;;13.73;;
15816;SDS011;8009;50.070;8.232;2022-12-01T00:28:58;14.17;;;13.67;;
15816;SDS011;8009;50.070;8.232;2022-12-01T00:31:38;14.27;;;13.77;;
15816;SDS011;8009;50.070;8.232;2022-12-01T00:34:17;14.30;;;13.80;;
15816;SDS011;8009;50.070;8.232;2022-12-01T00:36:53;14.27;;;13.77;;
15816;SDS011;8009;50.070;8.232;2022-12-01T00:39:22;14.23;;;13.73;;
15816;SDS011;8009;50.070;8.232;2022-12-01T00:41:52;13.93;;;13.43;;
15816;SDS011;8009;50.070;8.232;2022-12-01T00:44:23;14.33;;;13.83;;
15816;SDS011;8009;50.070;8.232;2022-12-01T00:46:54;14.20;;;13.70;;
15816;SDS011;8009;50.070;8.232;2022-12-01T00:49:29;14.73;;;14.23;;
15816;SDS011;8009;50.070;8.232;2022-12-01T00:52:05;13.97;;;13.47;;
15816;SDS011;8009;50.070;8.232;2022-12-01T00:54:39;14.37;;;13.87;;
15816;SDS011;8009;50.070;8.232;2022-12-01T00:57:11;15.40;;;14.80;;
15816;SDS011;8009;50.070;8.232;2022-12-01T00:59:44;13.80;;;13.30;;
15816;SDS011;8009;50.070;8.232;2022-12-01T01:02:16;14.20;;;13.70;;
15816;SDS011;8009;50.070;8.232;2022-12-01T01:04:44;14.23;;;13.73;;
15816;SDS011;8009;50.070;8.232;2022-12-01T01:07:18;14.27;;;13.77;;
15816;SDS011;8009;50.070;8.232;2022-12-01T01:09:51;14.13;;;13.63;;
15816;SDS011;8009;50.070;8.232;2022-12-01T01:12:22;13.80;;;13.30;;
15816;SDS011;8009;50.070;8.232;2022-12-01T01:14:53;14.30;;;13.80;;
15816;SDS011;8009;50.070;8.232;2022-12-01T01:17:22;14.03;;;13.53;;
15816;SDS011;8009;50.070;8.232;2022-12-01T01:19:51;13.70;;;13.20;;
15816;SDS011;8009;50.070;8.232;2022-12-01T01:22:28;13.80;;;13.30;;
15816;SDS011;8009;50.070;8.232;2022-12-01T01:47:29;14.40;;;13.90;;
15816;SDS011;8009;50.070;8.232;2022-12-01T01:50:06;13.83;;;13.33;;
15816;SDS011;8009;50.070;8.232;2022-12-01T06:32:11;15.50;;;14.90;;
15816;SDS011;8009;50.070;8.232;2022-12-01T06:34:45;15.20;;;14.60;;
15816;SDS011;8009;50.070;8.232;2022-12-01T07:05:57;14.63;;;14.13;;
15816;SDS011;8009;50.070;8.232;2022-12-01T07:08:30;15.48;;;14.88;;
15816;SDS011;8009;50.070;8.232;2022-12-01T07:11:02;15.20;;;14.60;;
15816;SDS011;8009;50.070;8.232;2022-12-01T07:13:32;14.20;;;13.70;;
15816;SDS011;8009;50.070;8.232;2022-12-01T07:16:03;15.33;;;14.73;;
15816;SDS011;8009;50.070;8.232;2022-12-01T07:18:32;14.60;;;14.10;;
15816;SDS011;8009;50.070;8.232;2022-12-01T07:21:06;15.20;;;14.60;;
15816;SDS011;8009;50.070;8.232;2022-12-01T07:23:35;14.60;;;14.10;;
15816;SDS011;8009;50.070;8.232;2022-12-01T07:26:05;15.50;;;14.90;;
15816;SDS011;8009;50.070;8.232;2022-12-01T07:28:34;14.63;;;14.13;;
15816;SDS011;8009;50.070;8.232;2022-12-01T07:31:03;15.20;;;14.60;;
15816;SDS011;8009;50.070;8.232;2022-12-01T07:33:33;14.50;;;14.00;;
15816;SDS011;8009;50.070;8.232;2022-12-01T07:36:02;15.03;;;14.47;;
15816;SDS011;8009;50.070;8.232;2022-12-01T07:38:34;14.77;;;14.27;;
15816;SDS011;8009;50.070;8.232;2022-12-01T07:41:05;15.63;;;15.03;;
15816;SDS011;8009;50.070;8.232;2022-12-01T07:43:35;14.03;;;13.53;;
15816;SDS011;8009;50.070;8.232;2022-12-01T07:46:04;14.97;;;14.40;;
15816;SDS011;8009;50.070;8.232;2022-12-01T07:48:38;14.63;;;14.13;;
15816;SDS011;8009;50.070;8.232;2022-12-01T07:51:12;14.30;;;13.80;;
15816;SDS011;8009;50.070;8.232;2022-12-01T07:53:41;14.77;;;14.27;;
15816;SDS011;8009;50.070;8.232;2022-12-01T07:56:11;15.20;;;14.60;;
15816;SDS011;8009;50.070;8.232;2022-12-01T07:58:40;14.80;;;14.30;;
15816;SDS011;8009;50.070;8.232;2022-12-01T08:01:09;15.03;;;14.43;;
15816;SDS011;8009;50.070;8.232;2022-12-01T08:03:38;14.97;;;14.37;;
15816;SDS011;8009;50.070;8.232;2022-12-01T08:06:07;15.23;;;14.63;;
15816;SDS011;8009;50.070;8.232;2022-12-01T08:08:41;14.50;;;14.00;;
15816;SDS011;8009;50.070;8.232;2022-12-01T08:11:11;15.10;;;14.50;;
15816;SDS011;8009;50.070;8.232;2022-12-01T08:13:47;14.50;;;14.00;;
15816;SDS011;8009;50.070;8.232;2022-12-01T08:16:17;15.63;;;15.03;;
15816;SDS011;8009;50.070;8.232;2022-12-01T08:18:47;14.47;;;13.97;;
15816;SDS011;8009;50.070;8.232;2022-12-01T08:21:17;14.90;;;14.30;;
15816;SDS011;8009;50.070;8.232;2022-12-01T08:23:50;14.30;;;13.80;;
15816;SDS011;8009;50.070;8.232;2022-12-01T08:26:20;14.90;;;14.33;;
15816;SDS011;8009;50.070;8.232;2022-12-01T08:28:50;14.40;;;13.90;;
15816;SDS011;8009;50.070;8.232;2022-12-01T08:31:19;14.43;;;13.93;;
15816;SDS011;8009;50.070;8.232;2022-12-01T08:33:50;14.27;;;13.77;;
15816;SDS011;8009;50.070;8.232;2022-12-01T08:36:19;14.73;;;14.23;;
15816;SDS011;8009;50.070;8.232;2022-12-01T08:38:52;14.93;;;14.33;;
15816;SDS011;8009;50.070;8.232;2022-12-01T08:41:22;14.60;;;14.10;;
15816;SDS011;8009;50.070;8.232;2022-12-01T08:43:51;14.23;;;13.73;;
15816;SDS011;8009;50.070;8.232;2022-12-01T08:46:20;14.10;;;13.60;;
15816;SDS011;8009;50.070;8.232;2022-12-01T08:48:48;14.43;;;13.93;;
15816;SDS011;8009;50.070;8.232;2022-12-01T08:51:19;14.47;;;13.97;;
15816;SDS011;8009;50.070;8.232;2022-12-01T08:53:48;14.20;;;13.70;;
15816;SDS011;8009;50.070;8.232;2022-12-01T08:56:20;14.03;;;13.53;;
15816;SDS011;8009;50.070;8.232;2022-12-01T08:58:52;14.93;;;14.35;;
15816;SDS011;8009;50.070;8.232;2022-12-01T09:01:22;14.13;;;13.63;;
15816;SDS011;8009;50.070;8.232;2022-12-01T09:03:50;14.10;;;13.60;;
15816;SDS011;8009;50.070;8.232;2022-12-01T09:06:29;14.40;;;13.90;;
15816;SDS011;8009;50.070;8.232;2022-12-01T09:09:01;14.20;;;13.70;;
15816;SDS011;8009;50.070;8.232;2022-12-01T09:11:29;14.40;;;13.90;;
15816;SDS011;8009;50.070;8.232;2022-12-01T09:13:58;14.23;;;13.73;;
15816;SDS011;8009;50.070;8.232;2022-12-01T09:16:26;14.20;;;13.70;;
15816;SDS011;8009;50.070;8.232;2022-12-01T09:18:55;15.00;;;14.40;;
15816;SDS011;8009;50.070;8.232;2022-12-01T09:21:24;14.53;;;14.03;;
15816;SDS011;8009;50.070;8.232;2022-12-01T09:23:55;14.17;;;13.67;;
15816;SDS011;8009;50.070;8.232;2022-12-01T09:26:26;14.30;;;13.80;;
15816;SDS011;8009;50.070;8.232;2022-12-01T09:28:56;14.17;;;13.67;;
15816;SDS011;8009;50.070;8.232;2022-12-01T09:31:26;14.50;;;14.00;;
15816;SDS011;8009;50.070;8.232;2022-12-01T09:33:55;14.40;;;13.90;;
15816;SDS011;8009;50.070;8.232;2022-12-01T09:36:25;14.20;;;13.70;;
15816;SDS011;8009;50.070;8.232;2022-12-01T09:39:06;14.23;;;13.73;;
15816;SDS011;8009;50.070;8.232;2022-12-01T09:41:43;13.87;;;13.37;;
15816;SDS011;8009;50.070;8.232;2022-12-01T09:44:51;14.40;;;13.90;;
15816;SDS011;8009;50.070;8.232;2022-12-01T09:47:22;14.10;;;13.60;;
15816;SDS011;8009;50.070;8.232;2022-12-01T09:49:55;14.23;;;13.73;;
15816;SDS011;8009;50.070;8.232;2022-12-01T09:52:27;14.53;;;14.03;;
15816;SDS011;8009;50.070;8.232;2022-12-01T09:54:59;14.63;;;14.13;;
15816;SDS011;8009;50.070;8.232;2022-12-01T10:00:28;14.23;;;13.73;;
15816;SDS011;8009;50.070;8.232;2022-12-01T10:03:03;14.20;;;13.70;;
15816;SDS011;8009;50.070;8.232;2022-12-01T10:05:41;14.63;;;14.13;;
15816;SDS011;8009;50.070;8.232;2022-12-01T10:08:14;15.10;;;14.50;;
15816;SDS011;8009;50.070;8.232;2022-12-01T10:10:51;14.07;;;13.57;;
15816;SDS011;8009;50.070;8.232;2022-12-01T10:13:28;14.10;;;13.60;;
15816;SDS011;8009;50.070;8.232;2022-12-01T10:16:17;15.70;;;15.10;;
15816;SDS011;8009;50.070;8.232;2022-12-01T10:18:55;14.37;;;13.87;;
15816;SDS011;8009;50.070;8.232;2022-12-01T10:21:32;14.40;;;13.90;;
15816;SDS011;8009;50.070;8.232;2022-12-01T10:24:30;17.23;;;16.63;;
15816;SDS011;8009;50.070;8.232;2022-12-01T10:27:34;14.47;;;13.97;;
15816;SDS011;8009;50.070;8.232;2022-12-01T10:30:19;15.27;;;14.67;;
15816;SDS011;8009;50.070;8.232;2022-12-01T10:36:02;14.70;;;14.20;;
15816;SDS011;8009;50.070;8.232;2022-12-01T10:38:33;15.37;;;14.77;;
15816;SDS011;8009;50.070;8.232;2022-12-01T10:41:05;15.70;;;15.10;;
15816;SDS011;8009;50.070;8.232;2022-12-01T10:43:40;15.10;;;14.50;;
15816;SDS011;8009;50.070;8.232;2022-12-01T10:46:20;14.53;;;14.03;;
15816;SDS011;8009;50.070;8.232;2022-12-01T10:48:56;14.43;;;13.93;;
15816;SDS011;8009;50.070;8.232;2022-12-01T10:51:28;14.40;;;13.90;;
15816;SDS011;8009;50.070;8.232;2022-12-01T10:53:57;14.70;;;14.20;;
15816;SDS011;8009;50.070;8.232;2022-12-01T10:56:29;14.27;;;13.77;;
15816;SDS011;8009;50.070;8.232;2022-12-01T10:59:01;14.60;;;14.10;;
15816;SDS011;8009;50.070;8.232;2022-12-01T11:01:36;14.67;;;14.17;;
15816;SDS011;8009;50.070;8.232;2022-12-01T11:04:18;15.80;;;15.20;;
15816;SDS011;8009;50.070;8.232;2022-12-01T11:07:00;14.63;;;14.13;;
15816;SDS011;8009;50.070;8.232;2022-12-01T11:09:30;14.37;;;13.87;;
15816;SDS011;8009;50.070;8.232;2022-12-01T11:11:59;14.47;;;13.97;;
15816;SDS011;8009;50.070;8.232;2022-12-01T11:14:34;14.73;;;14.23;;
15816;SDS011;8009;50.070;8.232;2022-12-01T11:17:22;14.70;;;14.20;;
15816;SDS011;8009;50.070;8.232;2022-12-01T11:19:57;14.30;;;13.80;;
15816;SDS011;8009;50.070;8.232;2022-12-01T11:22:27;14.30;;;13.80;;
15816;SDS011;8009;50.070;8.232;2022-12-01T11:24:58;15.07;;;14.47;;
15816;SDS011;8009;50.070;8.232;2022-12-01T11:27:29;14.07;;;13.57;;
15816;SDS011;8009;50.070;8.232;2022-12-01T11:30:02;15.20;;;14.60;;
15816;SDS011;8009;50.070;8.232;2022-12-01T11:32:37;14.50;;;14.00;;
15816;SDS011;8009;50.070;8.232;2022-12-01T11:35:18;15.33;;;14.73;;
15816;SDS011;8009;50.070;8.232;2022-12-01T11:37:50;15.20;;;14.60;;
15816;SDS011;8009;50.070;8.232;2022-12-01T11:40:21;14.67;;;14.17;;
15816;SDS011;8009;50.070;8.232;2022-12-01T11:42:53;14.10;;;13.60;;
15816;SDS011;8009;50.070;8.232;2022-12-01T11:45:34;14.10;;;13.60;;
15816;SDS011;8009;50.070;8.232;2022-12-01T11:48:21;15.10;;;14.50;;
15816;SDS011;8009;50.070;8.232;2022-12-01T11:51:01;15.10;;;14.50;;
15816;SDS011;8009;50.070;8.232;2022-12-01T11:53:34;14.87;;;14.33;;
15816;SDS011;8009;50.070;8.232;2022-12-01T11:56:17;15.63;;;15.03;;
15816;SDS011;8009;50.070;8.232;2022-12-01T11:58:48;14.77;;;14.27;;
15816;SDS011;8009;50.070;8.232;2022-12-01T12:01:26;15.53;;;14.93;;
15816;SDS011;8009;50.070;8.232;2022-12-01T12:04:14;15.40;;;14.80;;
15816;SDS011;8009;50.070;8.232;2022-12-01T12:06:58;14.97;;;14.40;;
15816;SDS011;8009;50.070;8.232;2022-12-01T12:09:54;14.27;;;13.77;;
15816;SDS011;8009;50.070;8.232;2022-12-01T12:12:38;14.63;;;14.13;;
15816;SDS011;8009;50.070;8.232;2022-12-01T12:15:21;14.63;;;14.13;;
15816;SDS011;8009;50.070;8.232;2022-12-01T12:18:12;15.33;;;14.73;;
15816;SDS011;8009;50.070;8.232;2022-12-01T12:20:58;15.10;;;14.50;;
15816;SDS011;8009;50.070;8.232;2022-12-01T12:23:50;15.03;;;14.43;;
15816;SDS011;8009;50.070;8.232;2022-12-01T12:26:43;14.70;;;14.20;;
15816;SDS011;8009;50.070;8.232;2022-12-01T12:29:32;14.63;;;14.13;;
15816;SDS011;8009;50.070;8.232;2022-12-01T12:32:19;15.53;;;14.93;;
15816;SDS011;8009;50.070;8.232;2022-12-01T12:34:59;15.47;;;14.57;;
15816;SDS011;8009;50.070;8.232;2022-12-01T12:37:40;14.60;;;14.10;;
15816;SDS011;8009;50.070;8.232;2022-12-01T12:40:25;14.67;;;14.17;;
15816;SDS011;8009;50.070;8.232;2022-12-01T12:43:13;15.43;;;14.83;;
15816;SDS011;8009;50.070;8.232;2022-12-01T12:45:58;15.73;;;15.13;;
15816;SDS011;8009;50.070;8.232;2022-12-01T12:48:49;15.83;;;15.23;;
15816;SDS011;8009;50.070;8.232;2022-12-01T12:51:31;16.13;;;15.53;;
15816;SDS011;8009;50.070;8.232;2022-12-01T12:57:20;16.30;;;15.70;;
15816;SDS011;8009;50.070;8.232;2022-12-01T12:59:56;15.43;;;14.83;;
15816;SDS011;8009;50.070;8.232;2022-12-01T13:02:30;14.53;;;14.03;;
15816;SDS011;8009;50.070;8.232;2022-12-01T13:05:04;15.47;;;14.87;;
15816;SDS011;8009;50.070;8.232;2022-12-01T13:07:39;15.10;;;14.53;;
15816;SDS011;8009;50.070;8.232;2022-12-01T13:10:20;15.73;;;15.13;;
15816;SDS011;8009;50.070;8.232;2022-12-01T13:12:57;16.40;;;15.80;;
15816;SDS011;8009;50.070;8.232;2022-12-01T13:15:41;14.97;;;14.43;;
15816;SDS011;8009;50.070;8.232;2022-12-01T13:18:21;15.23;;;14.63;;
15816;SDS011;8009;50.070;8.232;2022-12-01T13:20:54;15.48;;;14.88;;
15816;SDS011;8009;50.070;8.232;2022-12-01T13:23:46;15.53;;;14.93;;
15816;SDS011;8009;50.070;8.232;2022-12-01T13:26:26;14.87;;;14.37;;
15816;SDS011;8009;50.070;8.232;2022-12-01T13:28:56;16.30;;;15.70;;
15816;SDS011;8009;50.070;8.232;2022-12-01T13:31:26;15.03;;;14.47;;
15816;SDS011;8009;50.070;8.232;2022-12-01T13:34:14;16.00;;;15.40;;
15816;SDS011;8009;50.070;8.232;2022-12-01T13:36:47;14.97;;;14.43;;
15816;SDS011;8009;50.070;8.232;2022-12-01T13:39:18;15.43;;;14.82;;
15816;SDS011;8009;50.070;8.232;2022-12-01T13:41:58;15.10;;;14.50;;
15816;SDS011;8009;50.070;8.232;2022-12-01T13:44:30;16.50;;;15.90;;
15816;SDS011;8009;50.070;8.232;2022-12-01T13:53:12;16.57;;;15.97;;
15816;SDS011;8009;50.070;8.232;2022-12-01T13:55:56;15.37;;;14.77;;
15816;SDS011;8009;50.070;8.232;2022-12-01T13:58:56;16.07;;;15.47;;
15816;SDS011;8009;50.070;8.232;2022-12-01T14:04:26;16.70;;;16.10;;
15816;SDS011;8009;50.070;8.232;2022-12-01T14:09:52;14.93;;;14.40;;
15816;SDS011;8009;50.070;8.232;2022-12-01T14:12:27;15.70;;;15.10;;
15816;SDS011;8009;50.070;8.232;2022-12-01T14:15:20;15.80;;;15.20;;
15816;SDS011;8009;50.070;8.232;2022-12-01T14:17:57;15.57;;;14.97;;
15816;SDS011;8009;50.070;8.232;2022-12-01T14:20:42;16.73;;;16.13;;
15816;SDS011;8009;50.070;8.232;2022-12-01T14:23:18;16.03;;;15.43;;
15816;SDS011;8009;50.070;8.232;2022-12-01T14:26:11;16.70;;;16.10;;
15816;SDS011;8009;50.070;8.232;2022-12-01T14:34:53;16.07;;;15.47;;
15816;SDS011;8009;50.070;8.232;2022-12-01T14:37:26;17.10;;;16.50;;
15816;SDS011;8009;50.070;8.232;2022-12-01T14:40:09;16.67;;;16.07;;
15816;SDS011;8009;50.070;8.232;2022-12-01T14:42:46;16.40;;;15.80;;
15816;SDS011;8009;50.070;8.232;2022-12-01T14:45:37;16.37;;;15.77;;
15816;SDS011;8009;50.070;8.232;2022-12-01T14:48:20;16.40;;;15.80;;
15816;SDS011;8009;50.070;8.232;2022-12-01T14:51:00;15.43;;;14.83;;
15816;SDS011;8009;50.070;8.232;2022-12-01T14:53:42;15.17;;;14.57;;
15816;SDS011;8009;50.070;8.232;2022-12-01T14:56:15;16.67;;;16.07;;
15816;SDS011;8009;50.070;8.232;2022-12-01T14:58:53;16.20;;;15.60;;
15816;SDS011;8009;50.070;8.232;2022-12-01T15:01:23;16.40;;;15.80;;
15816;SDS011;8009;50.070;8.232;2022-12-01T15:03:57;16.50;;;15.90;;
15816;SDS011;8009;50.070;8.232;2022-12-01T15:06:34;15.67;;;15.07;;
15816;SDS011;8009;50.070;8.232;2022-12-01T15:09:07;18.13;;;17.43;;
15816;SDS011;8009;50.070;8.232;2022-12-01T15:11:50;16.17;;;15.47;;
15816;SDS011;8009;50.070;8.232;2022-12-01T15:14:22;16.77;;;16.17;;
15816;SDS011;8009;50.070;8.232;2022-12-01T15:16:55;17.07;;;16.47;;
15816;SDS011;8009;50.070;8.232;2022-12-01T15:19:30;17.23;;;16.63;;
15816;SDS011;8009;50.070;8.232;2022-12-01T15:22:16;15.97;;;15.37;;
15816;SDS011;8009;50.070;8.232;2022-12-01T15:25:04;15.83;;;15.23;;
15816;SDS011;8009;50.070;8.232;2022-12-01T15:27:35;16.27;;;15.67;;
15816;SDS011;8009;50.070;8.232;2022-12-01T15:30:04;17.85;;;17.15;;
15816;SDS011;8009;50.070;8.232;2022-12-01T15:32:34;17.00;;;16.40;;
15816;SDS011;8009;50.070;8.232;2022-12-01T15:35:21;16.27;;;15.67;;
15816;SDS011;8009;50.070;8.232;2022-12-01T15:37:59;16.17;;;15.57;;
15816;SDS011;8009;50.070;8.232;2022-12-01T15:40:30;15.60;;;15.00;;
15816;SDS011;8009;50.070;8.232;2022-12-01T15:43:13;16.80;;;16.20;;
15816;SDS011;8009;50.070;8.232;2022-12-01T15:45:57;16.30;;;15.70;;
15816;SDS011;8009;50.070;8.232;2022-12-01T15:48:40;16.20;;;15.60;;
15816;SDS011;8009;50.070;8.232;2022-12-01T15:51:17;17.70;;;17.00;;
15816;SDS011;8009;50.070;8.232;2022-12-01T15:53:56;16.70;;;16.10;;
15816;SDS011;8009;50.070;8.232;2022-12-01T15:56:36;17.10;;;16.50;;
15816;SDS011;8009;50.070;8.232;2022-12-01T15:59:12;17.83;;;17.13;;
15816;SDS011;8009;50.070;8.232;2022-12-01T16:01:50;17.77;;;17.07;;
15816;SDS011;8009;50.070;8.232;2022-12-01T16:04:21;17.07;;;16.43;;
15816;SDS011;8009;50.070;8.232;2022-12-01T16:06:57;16.70;;;16.10;;
15816;SDS011;8009;50.070;8.232;2022-12-01T16:09:32;16.47;;;15.87;;
15816;SDS011;8009;50.070;8.232;2022-12-01T16:12:18;17.00;;;16.37;;
15816;SDS011;8009;50.070;8.232;2022-12-01T16:15:10;16.67;;;16.07;;
15816;SDS011;8009;50.070;8.232;2022-12-01T16:17:43;16.07;;;15.47;;
15816;SDS011;8009;50.070;8.232;2022-12-01T16:20:17;17.57;;;16.87;;
15816;SDS011;8009;50.070;8.232;2022-12-01T16:22:51;16.90;;;16.30;;
15816;SDS011;8009;50.070;8.232;2022-12-01T16:25:27;16.37;;;15.77;;
15816;SDS011;8009;50.070;8.232;2022-12-01T16:28:00;17.53;;;16.83;;
15816;SDS011;8009;50.070;8.232;2022-12-01T16:30:33;17.33;;;16.70;;
15816;SDS011;8009;50.070;8.232;2022-12-01T16:33:10;17.63;;;16.93;;
15816;SDS011;8009;50.070;8.232;2022-12-01T16:35:46;16.93;;;16.33;;
15816;SDS011;8009;50.070;8.232;2022-12-01T16:38:19;17.63;;;16.93;;
15816;SDS011;8009;50.070;8.232;2022-12-01T16:40:53;16.83;;;16.23;;
15816;SDS011;8009;50.070;8.232;2022-12-01T16:43:23;17.07;;;16.47;;
15816;SDS011;8009;50.070;8.232;2022-12-01T16:46:00;15.67;;;15.07;;
15816;SDS011;8009;50.070;8.232;2022-12-01T16:48:32;16.67;;;16.07;;
15816;SDS011;8009;50.070;8.232;2022-12-01T16:51:09;18.20;;;17.50;;
15816;SDS011;8009;50.070;8.232;2022-12-01T16:53:41;17.47;;;16.80;;
15816;SDS011;8009;50.070;8.232;2022-12-01T16:56:14;17.03;;;16.43;;
15816;SDS011;8009;50.070;8.232;2022-12-01T16:58:45;17.63;;;16.93;;
15816;SDS011;8009;50.070;8.232;2022-12-01T17:01:18;18.07;;;17.37;;
15816;SDS011;8009;50.070;8.232;2022-12-01T17:03:58;17.77;;;17.07;;
15816;SDS011;8009;50.070;8.232;2022-12-01T17:06:26;18.30;;;17.60;;
15816;SDS011;8009;50.070;8.232;2022-12-01T17:08:58;17.17;;;16.57;;
15816;SDS011;8009;50.070;8.232;2022-12-01T17:11:31;17.87;;;17.17;;
15816;SDS011;8009;50.070;8.232;2022-12-01T17:14:01;18.27;;;17.57;;
15816;SDS011;8009;50.070;8.232;2022-12-01T17:16:30;18.07;;;17.37;;
15816;SDS011;8009;50.070;8.232;2022-12-01T17:19:02;17.53;;;16.87;;
15816;SDS011;8009;50.070;8.232;2022-12-01T17:21:40;16.93;;;16.33;;
15816;SDS011;8009;50.070;8.232;2022-12-01T17:24:10;18.63;;;17.93;;
15816;SDS011;8009;50.070;8.232;2022-12-01T17:26:54;17.73;;;17.03;;
15816;SDS011;8009;50.070;8.232;2022-12-01T17:29:26;16.93;;;16.33;;
15816;SDS011;8009;50.070;8.232;2022-12-01T17:32:09;18.07;;;17.37;;
15816;SDS011;8009;50.070;8.232;2022-12-01T17:34:40;16.80;;;16.20;;
15816;SDS011;8009;50.070;8.232;2022-12-01T17:37:11;17.70;;;17.00;;
15816;SDS011;8009;50.070;8.232;2022-12-01T17:39:40;17.60;;;16.93;;
15816;SDS011;8009;50.070;8.232;2022-12-01T17:42:16;18.97;;;18.27;;
15816;SDS011;8009;50.070;8.232;2022-12-01T17:44:48;17.73;;;17.03;;
15816;SDS011;8009;50.070;8.232;2022-12-01T17:47:35;16.90;;;16.30;;
15816;SDS011;8009;50.070;8.232;2022-12-01T17:50:18;18.47;;;17.77;;
15816;SDS011;8009;50.070;8.232;2022-12-01T17:52:54;18.23;;;17.53;;
15816;SDS011;8009;50.070;8.232;2022-12-01T17:55:39;16.53;;;15.93;;
15816;SDS011;8009;50.070;8.232;2022-12-01T18:04:17;18.37;;;17.67;;
15816;SDS011;8009;50.070;8.232;2022-12-01T18:07:11;16.83;;;16.23;;
15816;SDS011;8009;50.070;8.232;2022-12-01T18:13:01;17.00;;;16.40;;
15816;SDS011;8009;50.070;8.232;2022-12-01T18:15:47;15.80;;;15.20;;
15816;SDS011;8009;50.070;8.232;2022-12-01T18:18:30;16.77;;;16.17;;
15816;SDS011;8009;50.070;8.232;2022-12-01T18:21:07;17.37;;;16.70;;
15816;SDS011;8009;50.070;8.232;2022-12-01T18:23:38;17.27;;;16.67;;
15816;SDS011;8009;50.070;8.232;2022-12-01T18:26:30;16.57;;;15.97;;
15816;SDS011;8009;50.070;8.232;2022-12-01T18:29:23;18.03;;;17.33;;
15816;SDS011;8009;50.070;8.232;2022-12-01T18:32:10;18.30;;;17.60;;
15816;SDS011;8009;50.070;8.232;2022-12-01T18:34:45;16.80;;;16.20;;
15816;SDS011;8009;50.070;8.232;2022-12-01T18:37:26;16.43;;;15.83;;
15816;SDS011;8009;50.070;8.232;2022-12-01T18:40:07;17.80;;;17.10;;
15816;SDS011;8009;50.070;8.232;2022-12-01T18:42:37;17.03;;;16.43;;
15816;SDS011;8009;50.070;8.232;2022-12-01T18:45:06;16.70;;;16.10;;
15816;SDS011;8009;50.070;8.232;2022-12-01T18:47:38;17.87;;;17.17;;
15816;SDS011;8009;50.070;8.232;2022-12-01T18:50:11;17.87;;;17.17;;
15816;SDS011;8009;50.070;8.232;2022-12-01T18:52:40;16.30;;;15.70;;
15816;SDS011;8009;50.070;8.232;2022-12-01T18:55:09;17.00;;;16.40;;
15816;SDS011;8009;50.070;8.232;2022-12-01T18:57:38;17.07;;;16.47;;
15816;SDS011;8009;50.070;8.232;2022-12-01T19:00:09;16.90;;;16.30;;
15816;SDS011;8009;50.070;8.232;2022-12-01T19:02:39;16.37;;;15.77;;
15816;SDS011;8009;50.070;8.232;2022-12-01T19:05:19;17.37;;;16.67;;
15816;SDS011;8009;50.070;8.232;2022-12-01T19:07:52;16.80;;;16.20;;
15816;SDS011;8009;50.070;8.232;2022-12-01T19:10:21;16.43;;;15.83;;
15816;SDS011;8009;50.070;8.232;2022-12-01T19:12:53;16.20;;;15.60;;
15816;SDS011;8009;50.070;8.232;2022-12-01T20:28:23;16.67;;;16.07;;
15816;SDS011;8009;50.070;8.232;2022-12-01T20:31:10;17.23;;;16.63;;
15816;SDS011;8009;50.070;8.232;2022-12-01T20:34:08;16.10;;;15.50;;
15816;SDS011;8009;50.070;8.232;2022-12-01T20:36:51;16.40;;;15.80;;
15816;SDS011;8009;50.070;8.232;2022-12-01T20:39:24;16.60;;;16.00;;
15816;SDS011;8009;50.070;8.232;2022-12-01T20:42:09;16.90;;;16.30;;
15816;SDS011;8009;50.070;8.232;2022-12-01T20:44:54;16.20;;;15.60;;
15816;SDS011;8009;50.070;8.232;2022-12-01T20:47:32;14.83;;;14.30;;
15816;SDS011;8009;50.070;8.232;2022-12-01T20:50:10;15.13;;;14.53;;
15816;SDS011;8009;50.070;8.232;2022-12-01T20:52:40;15.57;;;14.97;;
15816;SDS011;8009;50.070;8.232;2022-12-01T20:55:12;15.97;;;15.37;;
15816;SDS011;8009;50.070;8.232;2022-12-01T20:57:44;18.77;;;18.08;;
15816;SDS011;8009;50.070;8.232;2022-12-01T21:03:14;16.00;;;15.40;;
15816;SDS011;8009;50.070;8.232;2022-12-01T21:05:47;15.67;;;15.07;;
15816;SDS011;8009;50.070;8.232;2022-12-01T21:08:27;16.20;;;15.60;;
15816;SDS011;8009;50.070;8.232;2022-12-01T21:11:32;15.70;;;15.10;;
15816;SDS011;8009;50.070;8.232;2022-12-01T21:14:22;16.30;;;15.70;;
15816;SDS011;8009;50.070;8.232;2022-12-01T21:17:01;18.33;;;17.63;;
15816;SDS011;8009;50.070;8.232;2022-12-01T21:19:37;15.80;;;15.20;;
15816;SDS011;8009;50.070;8.232;2022-12-01T21:22:16;14.80;;;14.27;;
15816;SDS011;8009;50.070;8.232;2022-12-01T21:24:49;15.50;;;14.90;;
15816;SDS011;8009;50.070;8.232;2022-12-01T21:27:18;14.33;;;13.83;;
15816;SDS011;8009;50.070;8.232;2022-12-01T21:29:48;15.40;;;14.80;;
15816;SDS011;8009;50.070;8.232;2022-12-01T21:32:24;15.67;;;15.07;;
15816;SDS011;8009;50.070;8.232;2022-12-01T21:34:59;15.63;;;15.03;;
15816;SDS011;8009;50.070;8.232;2022-12-01T21:37:34;15.30;;;14.70;;
15816;SDS011;8009;50.070;8.232;2022-12-01T21:40:06;16.97;;;16.37;;
15816;SDS011;8009;50.070;8.232;2022-12-01T21:42:45;15.20;;;14.60;;
15816;SDS011;8009;50.070;8.232;2022-12-01T21:45:17;15.03;;;14.43;;
15816;SDS011;8009;50.070;8.232;2022-12-01T21:47:59;15.63;;;15.03;;
15816;SDS011;8009;50.070;8.232;2022-12-01T21:50:34;15.10;;;14.50;;
15816;SDS011;8009;50.070;8.232;2022-12-01T21:53:08;15.13;;;14.57;;
15816;SDS011;8009;50.070;8.232;2022-12-01T21:55:44;15.47;;;14.87;;
15816;SDS011;8009;50.070;8.232;2022-12-01T21:58:22;16.03;;;15.43;;
15816;SDS011;8009;50.070;8.232;2022-12-01T22:00:55;15.70;;;15.10;;
15816;SDS011;8009;50.070;8.232;2022-12-01T22:03:42;14.83;;;14.33;;
15816;SDS011;8009;50.070;8.232;2022-12-01T22:06:15;16.67;;;16.07;;
15816;SDS011;8009;50.070;8.232;2022-12-01T22:08:49;16.50;;;15.80;;
15816;SDS011;8009;50.070;8.232;2022-12-01T22:11:25;14.50;;;14.00;;
15816;SDS011;8009;50.070;8.232;2022-12-01T22:14:10;16.37;;;15.77;;
15816;SDS011;8009;50.070;8.232;2022-12-01T22:16:42;15.53;;;14.93;;
15816;SDS011;8009;50.070;8.232;2022-12-01T22:19:24;15.90;;;15.30;;
15816;SDS011;8009;50.070;8.232;2022-12-01T22:22:10;15.53;;;14.93;;
15816;SDS011;8009;50.070;8.232;2022-12-01T22:24:47;15.33;;;14.73;;
15816;SDS011;8009;50.070;8.232;2022-12-01T22:27:21;15.77;;;15.17;;
15816;SDS011;8009;50.070;8.232;2022-12-01T22:29:57;14.60;;;14.10;;
15816;SDS011;8009;50.070;8.232;2022-12-01T22:32:33;15.37;;;14.77;;
15816;SDS011;8009;50.070;8.232;2022-12-01T22:41:04;15.57;;;14.97;;
15816;SDS011;8009;50.070;8.232;2022-12-01T22:43:40;15.47;;;14.87;;
15816;SDS011;8009;50.070;8.232;2022-12-01T22:46:21;16.17;;;15.57;;
15816;SDS011;8009;50.070;8.232;2022-12-01T22:48:53;15.37;;;14.77;;
15816;SDS011;8009;50.070;8.232;2022-12-01T22:51:30;15.63;;;15.03;;
15816;SDS011;8009;50.070;8.232;2022-12-01T22:57:13;16.10;;;15.50;;
15816;SDS011;8009;50.070;8.232;2022-12-01T22:59:52;16.10;;;15.50;;
15816;SDS011;8009;50.070;8.232;2022-12-01T23:02:24;15.20;;;14.60;;
15816;SDS011;8009;50.070;8.232;2022-12-01T23:05:00;15.37;;;14.77;;
15816;SDS011;8009;50.070;8.232;2022-12-01T23:07:44;16.60;;;16.00;;
15816;SDS011;8009;50.070;8.232;2022-12-01T23:10:15;16.33;;;15.73;;